createdAt,value
2017-09-19T00:04:57.000Z,66.783
2017-09-19T00:14:58.000Z,66.717
2017-09-19T00:24:57.000Z,66.767
2017-09-19T00:34:57.000Z,66.894
2017-09-19T00:44:57.000Z,66.817
2017-09-19T00:54:57.000Z,66.803
2017-09-19T01:04:57.000Z,66.716
2017-09-19T01:14:57.000Z,66.813
2017-09-19T01:24:57.000Z,66.748
2017-09-19T01:34:57.000Z,67.229
2017-09-19T01:44:57.000Z,67.263
2017-09-19T01:54:57.000Z,67.058
2017-09-19T02:14:57.000Z,67.218
2017-09-19T02:24:58.000Z,67.012
2017-09-19T02:34:58.000Z,67.025
2017-09-19T02:44:58.000Z,66.936
2017-09-19T02:54:58.000Z,67.053
2017-09-19T03:04:58.000Z,66.998
2017-09-19T03:14:58.000Z,66.924
2017-09-19T03:24:58.000Z,66.972
2017-09-19T03:34:58.000Z,67.073
2017-09-19T03:44:58.000Z,66.943
2017-09-19T03:54:58.000Z,66.909
2017-09-19T04:04:58.000Z,66.864
2017-09-19T04:14:58.000Z,66.767
2017-09-19T04:24:58.000Z,66.789
2017-09-19T04:34:58.000Z,66.831
2017-09-19T04:44:58.000Z,66.863
2017-09-19T04:54:58.000Z,66.849
2017-09-19T05:04:58.000Z,66.74
2017-09-19T05:14:58.000Z,66.955
2017-09-19T05:24:58.000Z,66.814
2017-09-19T05:34:58.000Z,66.738
2017-09-19T05:44:58.000Z,66.758
2017-09-19T05:54:58.000Z,66.865
2017-09-19T06:04:58.000Z,66.801
2017-09-19T06:14:58.000Z,66.64
2017-09-19T06:24:58.000Z,66.67
2017-09-19T06:34:58.000Z,66.808
2017-09-19T06:44:58.000Z,66.572
2017-09-19T06:54:58.000Z,66.539
2017-09-19T07:04:58.000Z,66.665
2017-09-19T07:14:58.000Z,66.583
2017-09-19T07:24:58.000Z,66.383
2017-09-19T07:34:58.000Z,66.348
2017-09-19T07:44:58.000Z,66.337
2017-09-19T07:54:58.000Z,66.23
2017-09-19T08:04:58.000Z,66.159
2017-09-19T08:14:58.000Z,65.726
2017-09-19T08:24:58.000Z,65.37
2017-09-19T08:34:58.000Z,65.471
2017-09-19T08:44:58.000Z,65.345
2017-09-19T08:54:58.000Z,64.973
2017-09-19T09:04:58.000Z,64.684
2017-09-19T09:14:58.000Z,64.587
2017-09-19T09:24:58.000Z,64.66
2017-09-19T09:34:58.000Z,64.577
2017-09-19T09:44:58.000Z,64.569
2017-09-19T09:54:58.000Z,64.295
2017-09-19T10:04:58.000Z,64.03
2017-09-19T10:14:59.000Z,64.166
2017-09-19T10:24:59.000Z,63.963
2017-09-19T10:34:59.000Z,63.786
2017-09-19T10:44:59.000Z,63.144
2017-09-19T10:54:59.000Z,62.559
2017-09-19T11:04:59.000Z,62.508
2017-09-19T11:14:59.000Z,62.1
2017-09-19T11:24:59.000Z,62.325
2017-09-19T11:34:59.000Z,62.729
2017-09-19T11:44:59.000Z,62.653
2017-09-19T11:54:59.000Z,62.474
2017-09-19T12:04:59.000Z,62.074
2017-09-19T12:14:59.000Z,62.202
2017-09-19T12:24:59.000Z,62.266
2017-09-19T12:34:59.000Z,62.194
2017-09-19T12:44:59.000Z,62.361
2017-09-19T12:54:59.000Z,61.835
2017-09-19T13:04:59.000Z,61.961
2017-09-19T13:14:59.000Z,61.752
2017-09-19T13:24:59.000Z,62.068
2017-09-19T13:34:59.000Z,61.922
2017-09-19T13:44:59.000Z,61.977
2017-09-19T13:54:59.000Z,62.202
2017-09-19T14:04:59.000Z,62.125
2017-09-19T14:14:59.000Z,62.146
2017-09-19T14:24:59.000Z,62.368
2017-09-19T14:34:59.000Z,62.523
2017-09-19T14:44:59.000Z,62.262
2017-09-19T14:54:59.000Z,62.306
2017-09-19T15:04:59.000Z,62.393
2017-09-19T15:14:59.000Z,62.51
2017-09-19T15:24:59.000Z,62.149
2017-09-19T15:34:59.000Z,62.055
2017-09-19T15:44:59.000Z,62.888
2017-09-19T15:54:59.000Z,63.037
2017-09-19T16:04:59.000Z,63.124
2017-09-19T16:14:59.000Z,63.384
2017-09-19T16:24:59.000Z,63.625
2017-09-19T16:34:59.000Z,63.59
2017-09-19T16:54:59.000Z,63.679
2017-09-19T17:04:59.000Z,63.668
2017-09-19T17:14:59.000Z,63.72
2017-09-19T17:24:59.000Z,63.663
2017-09-19T17:34:59.000Z,63.642
2017-09-19T17:44:59.000Z,63.791
2017-09-19T17:55:00.000Z,63.562
2017-09-19T18:05:00.000Z,63.405
2017-09-19T18:15:00.000Z,63.457
2017-09-19T18:25:00.000Z,63.52
2017-09-19T18:35:00.000Z,63.509
2017-09-19T18:45:00.000Z,63.517
2017-09-19T18:55:00.000Z,63.463
2017-09-19T19:05:00.000Z,63.641
2017-09-19T19:15:00.000Z,63.288
2017-09-19T19:25:00.000Z,63.557
2017-09-19T19:35:00.000Z,63.526
2017-09-19T19:45:00.000Z,64.788
2017-09-19T19:55:00.000Z,65.123
2017-09-19T20:05:00.000Z,65.283
2017-09-19T20:15:00.000Z,65.757
2017-09-19T20:25:00.000Z,65.409
2017-09-19T20:35:00.000Z,65.393
2017-09-19T20:45:00.000Z,65.332
2017-09-19T20:55:00.000Z,65.385
2017-09-19T21:05:00.000Z,65.403
2017-09-19T21:15:00.000Z,65.431
2017-09-19T21:25:00.000Z,65.458
2017-09-19T21:35:00.000Z,65.531
2017-09-19T21:45:00.000Z,65.415
2017-09-19T21:55:00.000Z,65.577
2017-09-19T22:05:00.000Z,65.516
2017-09-19T22:15:00.000Z,65.468
2017-09-19T22:25:00.000Z,65.444
2017-09-19T22:35:00.000Z,65.503
2017-09-19T22:45:00.000Z,65.543
2017-09-19T22:55:00.000Z,65.433
2017-09-19T23:05:00.000Z,65.513
2017-09-19T23:15:00.000Z,65.456
2017-09-19T23:25:00.000Z,65.431
2017-09-19T23:35:00.000Z,65.375
2017-09-19T23:45:00.000Z,65.393
2017-09-19T23:55:00.000Z,65.326
